Time;durP1;ratioP1;P1;durP2;ratioP2;P2;SDS_P1;SDS_P2;PMS_P1;PMS_P2;Temp;Humidity;BMP_temperature;BMP_pressure;BME280_temperature;BME280_humidity;BME280_pressure;Samples;Min_cycle;Max_cycle;Signal;HPM_P1;HPM_P2
2022/10/06 00:00:19;;;;;;;9.60;1.80;;;;;;;13.20;85.94;102075.97;5060526;28;20428;-67
2022/10/06 00:02:45;;;;;;;10.23;1.90;;;;;;;13.22;85.97;102078.53;5067263;28;20037;-68
2022/10/06 00:05:11;;;;;;;11.07;2.17;;;;;;;13.15;86.09;102083.22;5068699;28;20021;-67
2022/10/06 00:07:36;;;;;;;7.95;1.92;;;;;;;13.12;86.81;102095.50;5069928;28;20112;-67
2022/10/06 00:10:02;;;;;;;8.50;1.80;;;;;;;13.08;87.26;102099.78;5043317;28;20024;-67
2022/10/06 00:12:28;;;;;;;10.05;1.70;;;;;;;13.05;87.34;102108.47;5066934;28;20036;-67
2022/10/06 00:14:53;;;;;;;13.73;3.08;;;;;;;13.04;87.61;102105.94;5049654;28;20047;-67
2022/10/06 00:17:18;;;;;;;10.38;1.88;;;;;;;13.01;87.09;102109.97;5063980;28;20837;-67
2022/10/06 00:19:44;;;;;;;9.10;1.90;;;;;;;13.02;86.77;102111.66;5067322;28;20028;-67
2022/10/06 00:22:09;;;;;;;12.48;2.22;;;;;;;13.03;85.99;102118.91;5064063;28;20024;-67
2022/10/06 00:24:34;;;;;;;14.30;2.63;;;;;;;12.99;86.32;102135.03;5064930;28;20046;-68
2022/10/06 00:27:00;;;;;;;12.38;1.80;;;;;;;12.96;86.24;102127.16;5063068;28;20032;-69
2022/10/06 00:29:26;;;;;;;13.88;2.42;;;;;;;12.93;85.60;102135.88;5046148;28;20024;-67
2022/10/06 00:31:51;;;;;;;9.27;1.90;;;;;;;12.96;85.51;102142.88;5061903;28;20031;-66
2022/10/06 00:34:16;;;;;;;10.35;2.03;;;;;;;12.89;85.52;102144.81;5064148;28;20020;-69
2022/10/06 00:36:42;;;;;;;11.38;2.38;;;;;;;12.88;85.33;102151.38;5063038;28;20036;-68
2022/10/06 00:39:08;;;;;;;9.48;1.83;;;;;;;12.86;85.09;102154.34;5064239;28;20619;-68
2022/10/06 00:41:33;;;;;;;10.85;2.00;;;;;;;12.87;84.81;102150.50;5069174;28;20040;-67
2022/10/06 00:43:59;;;;;;;13.88;2.00;;;;;;;12.87;84.51;102156.03;5065655;28;20079;-69
2022/10/06 00:46:25;;;;;;;10.65;1.90;;;;;;;12.87;84.00;102157.94;5067173;28;20060;-68
2022/10/06 00:49:13;;;;;;;17.40;2.35;;;;;;;12.87;84.39;102160.69;5068195;28;20068;-67
2022/10/06 00:51:43;;;;;;;11.85;2.13;;;;;;;12.81;83.93;102165.16;5066505;28;20372;-67
2022/10/06 00:54:09;;;;;;;10.73;2.00;;;;;;;12.84;83.01;102174.91;5068344;28;20449;-66
2022/10/06 00:56:37;;;;;;;11.18;2.03;;;;;;;12.79;82.84;102172.81;5068688;28;20035;-67
2022/10/06 00:59:02;;;;;;;10.95;2.10;;;;;;;12.78;83.13;102176.63;5066947;28;20033;-68
2022/10/06 01:01:30;;;;;;;10.88;2.83;;;;;;;12.76;82.50;102178.72;5066795;28;20032;-67
2022/10/06 01:04:01;;;;;;;16.38;2.50;;;;;;;12.73;83.16;102179.16;5067511;28;20036;-66
2022/10/06 01:06:27;;;;;;;12.60;1.92;;;;;;;12.74;83.01;102180.88;5058863;28;20087;-67
2022/10/06 01:08:52;;;;;;;11.82;2.38;;;;;;;12.73;82.92;102181.94;5060713;28;20032;-67
2022/10/06 01:11:18;;;;;;;11.40;1.90;;;;;;;12.69;83.16;102197.19;5068104;28;20048;-67
2022/10/06 01:13:44;;;;;;;14.82;2.60;;;;;;;12.64;83.74;102195.06;5066982;28;20037;-67
2022/10/06 01:16:15;;;;;;;18.13;2.53;;;;;;;12.67;83.90;102200.16;5066431;28;20467;-67
2022/10/06 01:18:42;;;;;;;13.10;2.08;;;;;;;12.65;83.75;102206.94;5067726;28;20039;-67
2022/10/06 01:21:19;;;;;;;11.50;2.20;;;;;;;12.65;84.43;102209.69;5066662;28;20071;-67
2022/10/06 01:23:44;;;;;;;13.07;2.08;;;;;;;12.67;84.09;102213.06;5068917;28;20028;-67
2022/10/06 01:26:13;;;;;;;13.77;2.47;;;;;;;12.65;84.72;102215.22;5065556;28;20133;-68
2022/10/06 01:28:38;;;;;;;13.93;2.05;;;;;;;12.68;84.25;102220.31;5067351;28;21184;-66
2022/10/06 01:31:06;;;;;;;13.60;2.28;;;;;;;12.60;84.90;102223.25;5066200;28;20086;-67
2022/10/06 01:33:31;;;;;;;12.23;2.20;;;;;;;12.60;84.42;102231.53;5067820;28;20038;-67
2022/10/06 01:35:56;;;;;;;13.82;2.40;;;;;;;12.58;84.54;102230.91;5066542;28;20036;-67
2022/10/06 01:38:22;;;;;;;12.60;2.13;;;;;;;12.56;84.79;102235.75;5063985;28;20028;-67
2022/10/06 01:40:50;;;;;;;11.18;2.75;;;;;;;12.55;84.46;102239.56;5049434;28;20041;-67
2022/10/06 01:43:15;;;;;;;;;;;;;;;12.67;83.74;102238.75;5067221;28;20449;-66
2022/10/06 01:45:40;;;;;;;11.00;1.97;;;;;;;12.51;84.70;102246.56;5066531;28;19916;-67
2022/10/06 01:48:06;;;;;;;12.10;1.80;;;;;;;12.53;83.71;102245.31;5067019;28;20043;-66
2022/10/06 01:50:31;;;;;;;11.52;2.40;;;;;;;12.53;83.62;102237.03;5066777;28;20090;-66
2022/10/06 01:52:56;;;;;;;11.20;1.83;;;;;;;12.55;83.29;102245.09;5067018;28;20120;-67
2022/10/06 01:55:23;;;;;;;11.13;1.92;;;;;;;12.51;83.54;102249.31;5066689;28;20074;-67
2022/10/06 01:57:48;;;;;;;9.10;2.22;;;;;;;12.47;83.65;102251.66;5067655;28;20107;-66
2022/10/06 02:00:14;;;;;;;13.10;2.00;;;;;;;12.43;83.77;102256.72;5059416;28;20119;-66
2022/10/06 02:02:40;;;;;;;14.90;2.85;;;;;;;12.45;83.13;102256.50;5065259;28;20036;-67
2022/10/06 02:05:05;;;;;;;10.18;2.30;;;;;;;12.41;83.45;102253.31;5063459;28;20435;-66
2022/10/06 02:07:31;;;;;;;8.55;2.22;;;;;;;12.40;83.24;102270.91;5063523;28;20584;-66
2022/10/06 02:09:56;;;;;;;12.85;2.10;;;;;;;12.35;84.11;102270.69;5066582;28;20025;-67
2022/10/06 02:12:22;;;;;;;14.38;2.28;;;;;;;12.30;83.92;102262.19;5065781;28;20032;-67
2022/10/06 02:14:48;;;;;;;8.95;1.75;;;;;;;12.27;84.09;102268.16;5066201;28;20678;-67
2022/10/06 02:17:13;;;;;;;11.85;2.25;;;;;;;12.23;84.59;102269.59;5067759;28;20055;-67
2022/10/06 02:19:38;;;;;;;9.20;2.42;;;;;;;12.21;84.44;102282.72;5066505;28;20040;-67
2022/10/06 02:22:04;;;;;;;9.13;1.97;;;;;;;12.15;84.55;102289.91;5067397;28;20625;-67
2022/10/06 02:24:29;;;;;;;10.73;2.40;;;;;;;12.09;85.38;102295.41;5053201;28;20301;-66
2022/10/06 02:26:55;;;;;;;14.23;2.30;;;;;;;12.05;85.52;102300.47;5067024;28;20025;-67
2022/10/06 02:29:20;;;;;;;11.35;2.00;;;;;;;12.03;85.02;102298.97;5066947;28;20031;-67
2022/10/06 02:31:46;;;;;;;14.10;2.20;;;;;;;11.98;85.91;102298.75;5066825;28;20115;-67
2022/10/06 02:34:12;;;;;;;12.18;2.67;;;;;;;11.96;85.58;102307.19;5065902;28;20047;-67
2022/10/06 02:36:37;;;;;;;11.35;2.58;;;;;;;11.97;85.38;102306.16;5065617;28;20041;-67
2022/10/06 02:39:03;;;;;;;8.85;2.10;;;;;;;11.91;85.52;102318.84;5066617;28;20378;-67
2022/10/06 02:41:28;;;;;;;11.27;2.33;;;;;;;11.93;85.26;102318.63;5066218;28;20020;-67
2022/10/06 02:43:54;;;;;;;13.63;2.90;;;;;;;11.89;85.41;102326.44;5066899;28;20029;-68
2022/10/06 02:46:19;;;;;;;12.73;2.95;;;;;;;11.85;85.87;102329.78;5065008;28;20424;-67
2022/10/06 02:48:45;;;;;;;13.85;1.90;;;;;;;11.82;86.07;102330.22;5066768;28;20064;-67
2022/10/06 02:51:15;;;;;;;11.73;2.70;;;;;;;11.75;86.05;102329.28;5065421;28;20028;-66
2022/10/06 02:53:42;;;;;;;9.75;2.58;;;;;;;11.70;86.40;102332.63;5065703;28;20036;-67
2022/10/06 02:56:19;;;;;;;9.32;2.15;;;;;;;11.71;86.45;102345.38;5066534;28;20036;-67
2022/10/06 02:58:46;;;;;;;15.73;2.70;;;;;;;11.67;86.35;102346.81;5067525;28;20351;-67
2022/10/06 03:01:20;;;;;;;14.25;2.30;;;;;;;11.64;86.67;102355.47;5055941;28;20483;-67
2022/10/06 03:03:46;;;;;;;12.75;2.55;;;;;;;11.60;86.56;102356.91;5050182;28;20028;-67
2022/10/06 03:06:23;;;;;;;16.65;2.80;;;;;;;11.57;87.03;102357.31;5051916;28;20029;-67
2022/10/06 03:08:57;;;;;;;16.47;3.57;;;;;;;11.51;87.04;102356.22;5066574;28;20028;-67
2022/10/06 03:11:25;;;;;;;10.98;2.63;;;;;;;11.50;87.33;102365.50;5066565;28;20048;-67
2022/10/06 03:13:51;;;;;;;;;;;;;;;11.59;86.20;102366.22;5066497;28;20036;-67
2022/10/06 03:16:24;;;;;;;12.65;2.35;;;;;;;11.49;86.41;102374.81;5068965;28;19962;-67
2022/10/06 03:18:51;;;;;;;12.13;2.85;;;;;;;11.51;87.11;102369.13;5069037;28;20032;-67
2022/10/06 03:21:18;;;;;;;12.55;2.42;;;;;;;11.46;86.67;102375.22;5070816;28;20089;-67
2022/10/06 03:23:46;;;;;;;10.60;2.42;;;;;;;11.39;87.29;102385.31;5070777;28;20021;-67
2022/10/06 03:26:14;;;;;;;17.08;2.90;;;;;;;11.36;87.70;102385.72;5070270;28;20033;-67
2022/10/06 03:28:39;;;;;;;12.32;2.40;;;;;;;11.31;87.45;102389.06;5069021;28;20097;-66
2022/10/06 03:31:05;;;;;;;14.55;2.95;;;;;;;11.25;87.85;102389.00;5068189;28;20032;-67
2022/10/06 03:33:32;;;;;;;13.82;2.33;;;;;;;11.22;88.21;102400.41;5069807;28;20040;-67
2022/10/06 03:36:02;;;;;;;12.88;2.25;;;;;;;11.20;88.73;102407.97;5068330;28;20041;-67
2022/10/06 03:38:31;;;;;;;11.85;2.50;;;;;;;11.12;88.58;102409.81;5069885;28;20032;-67
2022/10/06 03:41:11;;;;;;;15.07;3.05;;;;;;;11.12;88.81;102414.47;5069925;28;20028;-67
2022/10/06 03:43:37;;;;;;;15.00;2.72;;;;;;;11.07;89.33;102419.72;5068682;28;20575;-67
2022/10/06 03:46:03;;;;;;;13.82;3.13;;;;;;;11.03;89.35;102413.75;5068010;28;20486;-67
2022/10/06 03:48:32;;;;;;;14.90;2.92;;;;;;;11.00;89.90;102424.28;5068780;28;20029;-67
2022/10/06 03:50:58;;;;;;;;;;;;;;;11.04;88.80;102420.09;5069202;28;20036;-67
2022/10/06 03:53:26;;;;;;;14.77;3.20;;;;;;;10.95;90.43;102424.00;5069265;28;19912;-67
2022/10/06 03:56:05;;;;;;;15.40;2.90;;;;;;;10.91;90.82;102435.41;5068062;28;20032;-67
2022/10/06 03:58:33;;;;;;;12.50;2.42;;;;;;;10.83;90.68;102441.00;5069323;28;20035;-67
2022/10/06 04:01:35;;;;;;;11.30;2.38;;;;;;;10.86;91.13;102456.28;5057973;28;20372;-67
2022/10/06 04:04:01;;;;;;;13.77;2.50;;;;;;;10.79;91.14;102452.59;5061354;28;20039;-67
2022/10/06 04:06:30;;;;;;;10.30;2.60;;;;;;;10.75;91.95;102460.38;5068304;28;20032;-67
2022/10/06 04:08:56;;;;;;;13.52;3.00;;;;;;;10.73;91.67;102467.94;5068802;28;20090;-66
2022/10/06 04:11:25;;;;;;;15.75;3.03;;;;;;;10.69;92.60;102469.38;5066398;28;20045;-67
2022/10/06 04:13:56;;;;;;;15.57;2.33;;;;;;;10.69;92.99;102471.28;5069686;28;20039;-67
2022/10/06 04:16:24;;;;;;;12.18;2.67;;;;;;;10.64;93.16;102467.22;5065382;28;20103;-67
2022/10/06 04:18:52;;;;;;;12.80;2.78;;;;;;;10.67;92.95;102482.47;5067188;28;20142;-68
2022/10/06 04:21:18;;;;;;;14.85;2.80;;;;;;;10.60;92.72;102485.13;5068524;28;20362;-68
2022/10/06 04:23:44;;;;;;;10.68;3.20;;;;;;;10.59;93.11;102483.44;5069430;28;20048;-67
2022/10/06 04:26:16;;;;;;;15.70;2.95;;;;;;;10.59;93.75;102488.03;5067626;28;20541;-67
2022/10/06 04:28:45;;;;;;;14.18;2.65;;;;;;;10.55;93.40;102497.75;5067409;28;20078;-67
2022/10/06 04:31:19;;;;;;;14.10;2.85;;;;;;;10.54;93.71;102496.00;5068414;28;20103;-67
2022/10/06 04:33:46;;;;;;;11.52;2.80;;;;;;;10.51;93.49;102489.03;5069161;28;20035;-67
2022/10/06 04:36:21;;;;;;;14.30;2.93;;;;;;;10.51;93.75;102494.50;5067000;28;20116;-66
2022/10/06 04:38:47;;;;;;;13.65;2.95;;;;;;;10.51;93.78;102497.25;5066104;28;20029;-66
2022/10/06 04:41:15;;;;;;;14.32;3.03;;;;;;;10.47;93.65;102498.69;5068158;28;20043;-66
2022/10/06 04:43:40;;;;;;;15.55;3.50;;;;;;;10.48;93.92;102502.28;5068117;28;20032;-66
2022/10/06 04:46:06;;;;;;;17.83;3.08;;;;;;;10.44;93.78;102511.94;5061166;28;20378;-66
2022/10/06 04:48:32;;;;;;;11.90;2.83;;;;;;;10.43;93.66;102505.59;5064131;28;20044;-67
2022/10/06 04:51:00;;;;;;;15.52;3.25;;;;;;;10.38;94.05;102514.38;5067620;28;20112;-67
2022/10/06 04:53:27;;;;;;;13.45;3.05;;;;;;;10.34;94.31;102513.09;5067824;28;20027;-67
2022/10/06 04:56:02;;;;;;;13.30;4.15;;;;;;;10.29;94.49;102514.66;5067878;28;20039;-67
2022/10/06 04:58:32;;;;;;;15.48;3.53;;;;;;;10.28;94.53;102519.31;5067830;28;20464;-67
2022/10/06 05:00:59;;;;;;;13.05;3.00;;;;;;;10.26;94.66;102521.41;5069209;28;20039;-67
2022/10/06 05:03:25;;;;;;;15.13;3.22;;;;;;;10.24;94.49;102531.72;5067589;28;20036;-67
2022/10/06 05:05:50;;;;;;;16.75;3.40;;;;;;;10.22;94.43;102531.00;5064710;28;20127;-67
2022/10/06 05:08:15;;;;;;;13.90;3.15;;;;;;;10.26;94.16;102540.63;5068890;28;20115;-67
2022/10/06 05:10:41;;;;;;;18.48;4.10;;;;;;;10.21;94.63;102540.28;5065137;28;20044;-67
2022/10/06 05:13:10;;;;;;;16.88;3.88;;;;;;;10.16;94.50;102553.72;5066861;28;20028;-67
2022/10/06 05:15:36;;;;;;;15.30;3.38;;;;;;;10.13;94.46;102554.09;5067730;28;20032;-68
2022/10/06 05:18:01;;;;;;;12.63;2.97;;;;;;;10.09;94.89;102558.28;5067616;28;20032;-67
2022/10/06 05:20:26;;;;;;;10.73;2.90;;;;;;;10.08;95.00;102562.03;5067666;28;20530;-67
2022/10/06 05:22:52;;;;;;;15.63;3.28;;;;;;;10.04;94.65;102567.06;5066598;28;20032;-67
2022/10/06 05:25:17;;;;;;;16.00;2.97;;;;;;;10.01;94.79;102569.31;5050020;28;20515;-67
2022/10/06 05:27:42;;;;;;;14.52;3.25;;;;;;;9.99;94.59;102568.66;5068726;28;20040;-67
2022/10/06 05:30:08;;;;;;;12.35;3.20;;;;;;;9.96;95.02;102569.00;5067230;28;20043;-66
2022/10/06 05:32:33;;;;;;;16.65;3.13;;;;;;;9.94;94.81;102579.34;5067568;28;20047;-67
2022/10/06 05:34:59;;;;;;;16.08;3.42;;;;;;;9.92;94.94;102587.72;5067537;28;20021;-67
2022/10/06 05:37:24;;;;;;;16.60;3.20;;;;;;;9.92;95.11;102584.13;5066183;28;20029;-66
2022/10/06 05:39:49;;;;;;;15.50;3.53;;;;;;;9.86;95.03;102589.31;5083068;28;20032;-67
2022/10/06 05:42:15;;;;;;;17.23;3.30;;;;;;;9.84;94.90;102588.66;5067102;28;20029;-66
2022/10/06 05:44:40;;;;;;;19.98;3.78;;;;;;;9.80;95.29;102602.94;5066401;28;20481;-67
2022/10/06 05:47:05;;;;;;;15.30;3.80;;;;;;;9.76;95.28;102604.31;5065691;28;20029;-67
2022/10/06 05:49:30;;;;;;;17.50;5.85;;;;;;;9.77;95.22;102612.38;5067032;28;20111;-67
2022/10/06 05:51:56;;;;;;;14.45;3.40;;;;;;;9.75;95.26;102611.72;5066983;28;20051;-67
2022/10/06 05:54:21;;;;;;;19.65;3.67;;;;;;;9.76;95.73;102616.16;5066627;28;20428;-67
2022/10/06 05:56:46;;;;;;;15.23;3.70;;;;;;;9.74;95.31;102618.25;5066097;28;20032;-66
2022/10/06 05:59:11;;;;;;;13.30;3.40;;;;;;;9.74;95.36;102618.25;5066146;28;20055;-68
2022/10/06 06:01:41;;;;;;;18.23;4.25;;;;;;;9.75;95.28;102627.31;5069212;28;20301;-67
2022/10/06 06:04:12;;;;;;;16.23;3.30;;;;;;;9.71;95.61;102632.31;5063913;28;20471;-66
2022/10/06 06:06:40;;;;;;;16.75;3.55;;;;;;;9.71;95.38;102629.56;5046986;28;20025;-67
2022/10/06 06:09:05;;;;;;;19.38;4.20;;;;;;;9.72;95.22;102633.16;5061925;28;20411;-67
2022/10/06 06:11:31;;;;;;;12.35;3.75;;;;;;;9.73;95.33;102652.22;5065221;28;20072;-66
2022/10/06 06:13:57;;;;;;;15.57;3.90;;;;;;;9.68;95.42;102643.66;5060632;28;20060;-68
2022/10/06 06:16:24;;;;;;;18.17;3.75;;;;;;;9.71;94.90;102654.25;5064459;28;20035;-68
2022/10/06 06:18:49;;;;;;;20.02;3.95;;;;;;;9.76;95.24;102659.22;5065571;28;20068;-68
2022/10/06 06:21:14;;;;;;;15.52;3.45;;;;;;;9.74;94.87;102653.06;5065535;28;20509;-67
2022/10/06 06:23:43;;;;;;;18.23;3.90;;;;;;;9.76;95.07;102662.81;5067605;28;20016;-66
2022/10/06 06:26:11;;;;;;;17.20;3.78;;;;;;;9.76;94.81;102659.22;5063340;28;20444;-67
2022/10/06 06:28:36;;;;;;;17.92;3.92;;;;;;;9.78;94.87;102660.75;5063364;28;20066;-67
2022/10/06 06:31:08;;;;;;;24.50;3.92;;;;;;;9.81;94.57;102660.38;5064216;28;20024;-68
2022/10/06 06:33:36;;;;;;;17.15;4.97;;;;;;;9.84;94.64;102659.16;5064792;28;20112;-67
2022/10/06 06:36:02;;;;;;;;;;;;;;;9.93;93.78;102657.19;5046575;28;20032;-68
2022/10/06 06:38:29;;;;;;;16.13;3.13;;;;;;;9.88;94.17;102664.13;5062661;28;20419;-67
2022/10/06 06:40:54;;;;;;;14.38;3.53;;;;;;;9.91;94.31;102670.25;5062668;28;20407;-68
2022/10/06 06:43:19;;;;;;;17.05;3.78;;;;;;;9.92;94.21;102674.72;5046958;28;20039;-66
2022/10/06 06:45:44;;;;;;;19.38;3.88;;;;;;;9.95;94.37;102674.38;5064158;28;20108;-67
2022/10/06 06:48:14;;;;;;;16.00;3.78;;;;;;;9.95;94.28;102677.97;5066707;28;20040;-67
2022/10/06 06:50:40;;;;;;;18.08;3.40;;;;;;;10.04;94.01;102687.00;5063687;28;20078;-67
2022/10/06 06:53:05;;;;;;;15.88;3.92;;;;;;;10.03;93.89;102690.75;5064115;28;20068;-67
2022/10/06 06:55:31;;;;;;;18.00;4.07;;;;;;;10.09;93.65;102693.66;5064616;28;20020;-67
2022/10/06 06:57:56;;;;;;;17.58;3.40;;;;;;;10.14;93.48;102690.34;5064678;28;20035;-67
2022/10/06 07:00:22;;;;;;;18.40;4.25;;;;;;;10.16;93.17;102704.75;5062526;28;20028;-67
2022/10/06 07:02:57;;;;;;;16.23;3.78;;;;;;;10.22;93.12;102704.00;5047952;28;20111;-67
2022/10/06 07:05:22;;;;;;;18.95;4.30;;;;;;;10.29;92.72;102709.66;5063840;28;20033;-67
2022/10/06 07:07:48;;;;;;;19.08;3.80;;;;;;;10.29;92.73;102707.78;5064753;28;20029;-68
2022/10/06 07:10:13;;;;;;;14.02;3.25;;;;;;;10.33;92.72;102714.59;5064454;28;20025;-68
2022/10/06 07:12:38;;;;;;;16.40;3.88;;;;;;;10.37;92.39;102726.94;5065171;28;20028;-67
2022/10/06 07:26:03;;;;;;;16.85;3.70;;;;;;;10.64;90.63;102731.03;5066116;28;20047;-67
2022/10/06 07:28:31;;;;;;;17.85;3.92;;;;;;;10.72;90.96;102751.22;5066267;28;20055;-67
2022/10/06 07:30:59;;;;;;;18.27;4.55;;;;;;;10.74;90.52;102747.22;5062925;28;20031;-67
2022/10/06 07:33:28;;;;;;;20.23;4.25;;;;;;;10.81;90.37;102761.94;5064197;28;20482;-66
2022/10/06 07:35:53;;;;;;;18.38;3.78;;;;;;;10.85;90.24;102763.28;5052411;28;20117;-67
2022/10/06 07:38:24;;;;;;;18.95;3.90;;;;;;;10.91;90.01;102776.28;5058770;28;20115;-67
2022/10/06 07:40:57;;;;;;;20.23;5.47;;;;;;;10.99;89.80;102780.00;5065171;28;20025;-67
2022/10/06 07:43:23;;;;;;;15.30;3.20;;;;;;;11.04;89.33;102781.13;5063275;28;20024;-66
2022/10/06 07:45:48;;;;;;;14.93;3.40;;;;;;;11.08;88.66;102784.38;5062976;28;20437;-66
2022/10/06 07:48:19;;;;;;;14.38;3.40;;;;;;;11.19;88.32;102783.91;5064464;28;20378;-67
2022/10/06 07:50:49;;;;;;;16.83;3.42;;;;;;;11.27;88.33;102783.00;5064142;28;20112;-67
2022/10/06 07:53:16;;;;;;;18.08;4.55;;;;;;;11.36;88.02;102788.22;5064594;28;20021;-67
2022/10/06 07:55:45;;;;;;;16.75;4.03;;;;;;;11.42;87.94;102792.97;5064168;28;20029;-68
2022/10/06 07:58:12;;;;;;;17.10;3.47;;;;;;;11.48;87.44;102790.50;5063877;28;20028;-66
2022/10/06 08:00:38;;;;;;;12.80;3.50;;;;;;;11.56;87.12;102796.78;5065408;28;20387;-67
2022/10/06 08:03:03;;;;;;;14.70;3.78;;;;;;;11.68;86.53;102798.00;5069146;28;20028;-67
2022/10/06 08:05:29;;;;;;;14.52;3.72;;;;;;;11.75;86.13;102792.56;5068372;28;20079;-67
2022/10/06 08:07:57;;;;;;;18.65;4.18;;;;;;;12.05;85.92;102792.56;5069738;28;20025;-67
2022/10/06 08:10:22;;;;;;;;;;;;;;;12.52;84.67;102797.59;5069661;28;20465;-67
2022/10/06 08:12:48;;;;;;;17.45;3.38;;;;;;;12.88;81.20;102799.41;5068313;28;19917;-66
2022/10/06 08:15:13;;;;;;;17.40;3.80;;;;;;;12.82;80.38;102801.03;5048574;28;20024;-66
2022/10/06 08:17:39;;;;;;;18.80;4.25;;;;;;;12.76;81.42;102810.09;5067491;28;20039;-66
2022/10/06 08:20:07;;;;;;;20.42;3.90;;;;;;;12.73;81.22;102810.50;5066646;28;20066;-66
2022/10/06 08:22:33;;;;;;;9.98;3.20;;;;;;;12.73;81.38;102813.28;5067148;28;20121;-66
2022/10/06 08:24:58;;;;;;;16.05;3.20;;;;;;;12.75;81.54;102819.44;5067080;28;20471;-66
2022/10/06 08:27:27;;;;;;;18.88;3.92;;;;;;;12.81;80.83;102831.56;5066697;28;20374;-66
2022/10/06 08:29:53;;;;;;;19.08;4.65;;;;;;;12.88;81.18;102830.59;5064997;28;20025;-66
2022/10/06 08:32:19;;;;;;;20.35;4.20;;;;;;;13.00;81.18;102825.41;5065280;28;20044;-66
2022/10/06 08:34:45;;;;;;;19.10;3.72;;;;;;;13.20;80.53;102825.56;5069992;28;20035;-66
2022/10/06 08:37:10;;;;;;;19.35;3.75;;;;;;;13.57;79.56;102826.28;5066379;28;20017;-66
2022/10/06 08:39:36;;;;;;;17.08;3.65;;;;;;;14.35;74.89;102832.44;5067607;28;20370;-66
2022/10/06 08:42:02;;;;;;;16.50;3.53;;;;;;;14.62;72.87;102831.47;5066754;28;20043;-66
2022/10/06 08:44:30;;;;;;;15.90;3.30;;;;;;;14.66;71.72;102835.53;5066417;28;20467;-66
2022/10/06 08:46:59;;;;;;;;;;;;;;;14.80;74.84;102833.66;5067215;28;20513;-66
2022/10/06 08:49:32;;;;;;;15.32;3.22;;;;;;;14.74;71.89;102840.00;5066778;28;19962;-66
2022/10/06 08:52:20;;;;;;;14.23;3.00;;;;;;;14.90;72.88;102844.28;5067950;28;20079;-66
2022/10/06 08:55:07;;;;;;;16.48;3.33;;;;;;;15.18;70.92;102856.00;5068859;28;20492;-66
2022/10/06 08:57:49;;;;;;;14.93;3.13;;;;;;;15.98;69.55;102845.72;5066719;28;20136;-65
2022/10/06 09:00:16;;;;;;;16.20;3.55;;;;;;;17.30;65.12;102849.66;5066201;28;20032;-65
2022/10/06 09:02:45;;;;;;;15.30;3.10;;;;;;;18.83;57.83;102847.91;5067166;28;20051;-65
2022/10/06 09:05:22;;;;;;;13.63;2.88;;;;;;;20.42;53.59;102854.16;5065994;28;20016;-65
2022/10/06 09:08:01;;;;;;;14.95;3.28;;;;;;;22.05;49.57;102855.28;5066998;28;20044;-65
2022/10/06 09:10:54;;;;;;;15.15;2.92;;;;;;;23.27;48.57;102862.31;5066843;28;20048;-65
2022/10/06 09:13:54;;;;;;;17.27;3.75;;;;;;;23.83;46.71;102864.72;5066211;28;20443;-66
2022/10/06 09:16:30;;;;;;;14.77;2.80;;;;;;;24.17;44.58;102880.03;5054673;28;20044;-66
2022/10/06 09:19:20;;;;;;;13.15;3.55;;;;;;;24.77;43.94;102887.03;5065966;28;20568;-66
2022/10/06 09:21:49;;;;;;;12.05;2.40;;;;;;;25.13;39.58;102883.47;5066049;28;20343;-66
2022/10/06 09:24:17;;;;;;;10.80;2.72;;;;;;;25.01;39.57;102889.34;5066873;28;20082;-65
2022/10/06 09:26:44;;;;;;;;;;;;;;;25.68;43.74;102885.44;5066302;28;20358;-66
2022/10/06 09:29:09;;;;;;;11.98;2.38;;;;;;;25.92;36.94;102898.94;5065010;28;20101;-65
2022/10/06 09:31:49;;;;;;;9.38;2.00;;;;;;;25.80;38.83;102887.97;5066171;28;20024;-65
2022/10/06 09:34:24;;;;;;;13.52;2.90;;;;;;;25.71;37.34;102893.31;5067198;28;20095;-65
2022/10/06 09:36:59;;;;;;;12.13;2.63;;;;;;;25.77;38.34;102897.84;5065498;28;20052;-65
2022/10/06 09:39:31;;;;;;;12.20;2.50;;;;;;;25.35;36.81;102890.53;5066039;28;20036;-65
2022/10/06 09:42:01;;;;;;;14.45;2.85;;;;;;;25.53;37.68;102896.72;5065685;28;20033;-65
2022/10/06 09:44:29;;;;;;;11.15;2.15;;;;;;;25.60;36.85;102895.31;5065317;28;20043;-65
2022/10/06 09:46:55;;;;;;;11.80;2.50;;;;;;;26.16;36.20;102899.16;5065202;28;20028;-65
2022/10/06 09:49:25;;;;;;;12.20;2.30;;;;;;;25.94;36.87;102893.84;5064914;28;20139;-65
2022/10/06 09:52:10;;;;;;;12.95;2.60;;;;;;;26.20;38.12;102898.28;5064598;28;20028;-65
2022/10/06 09:54:37;;;;;;;11.95;2.05;;;;;;;25.17;37.18;102902.31;5065940;28;20044;-65
2022/10/06 09:57:25;;;;;;;11.68;2.30;;;;;;;24.80;39.10;102900.56;5064642;28;20033;-65
2022/10/06 09:59:50;;;;;;;10.50;1.95;;;;;;;24.42;37.33;102893.38;5062614;28;20040;-65
2022/10/06 10:02:28;;;;;;;11.20;2.55;;;;;;;23.93;40.23;102899.31;5067451;28;20039;-65
2022/10/06 10:04:55;;;;;;;10.32;2.28;;;;;;;23.07;41.13;102904.19;5067146;28;20702;-66
2022/10/06 10:07:26;;;;;;;10.57;2.63;;;;;;;21.37;44.42;102905.75;5066664;28;20036;-66
2022/10/06 10:10:08;;;;;;;10.57;2.47;;;;;;;20.63;45.60;102905.75;5066780;28;20025;-66
2022/10/06 10:12:34;;;;;;;12.18;2.38;;;;;;;20.27;46.97;102904.09;5067115;28;20690;-66
2022/10/06 10:15:23;;;;;;;11.43;2.70;;;;;;;20.39;48.54;102904.94;5064412;28;20139;-66
2022/10/06 10:17:55;;;;;;;12.38;2.08;;;;;;;20.97;46.12;102906.66;5066388;28;20032;-67
2022/10/06 10:20:23;;;;;;;10.77;2.58;;;;;;;20.73;45.08;102905.94;5064496;28;20041;-66
2022/10/06 10:22:48;;;;;;;;;;;;;;;20.35;47.99;102914.03;5065259;28;20486;-66
2022/10/06 10:25:32;;;;;;;10.20;2.17;;;;;;;20.54;49.33;102915.59;5065186;28;20014;-66
2022/10/06 10:28:18;;;;;;;10.02;2.20;;;;;;;22.58;43.48;102907.81;5064849;28;20307;-67
2022/10/06 10:30:54;;;;;;;11.02;2.35;;;;;;;22.84;41.47;102914.56;5065213;28;20031;-66
2022/10/06 10:33:43;;;;;;;12.27;2.60;;;;;;;23.20;40.96;102917.75;5064908;28;20023;-66
2022/10/06 10:36:13;;;;;;;10.02;2.33;;;;;;;22.55;40.74;102922.31;5062346;28;20039;-66
2022/10/06 10:38:41;;;;;;;10.73;2.85;;;;;;;20.98;42.98;102907.50;5065111;28;20036;-66
2022/10/06 10:41:15;;;;;;;9.30;2.33;;;;;;;20.69;44.66;102910.31;5066149;28;20466;-66
2022/10/06 10:43:55;;;;;;;10.05;2.38;;;;;;;19.76;47.08;102911.28;5065988;28;20596;-67
2022/10/06 10:46:55;;;;;;;11.15;2.38;;;;;;;19.90;49.18;102911.91;5067782;28;20541;-67
2022/10/06 10:49:26;;;;;;;12.10;2.25;;;;;;;21.26;44.99;102909.44;5033728;28;20044;-67
2022/10/06 10:51:59;;;;;;;12.70;2.65;;;;;;;21.58;44.34;102911.66;5066039;28;20037;-67
2022/10/06 10:54:41;;;;;;;13.52;2.42;;;;;;;21.62;43.23;102907.28;5066836;28;20035;-67
2022/10/06 10:57:14;;;;;;;9.88;2.13;;;;;;;22.76;41.53;102915.88;5065817;28;20044;-66
2022/10/06 10:59:47;;;;;;;11.98;2.85;;;;;;;23.48;40.46;102913.81;5064983;28;20029;-67
2022/10/06 11:02:19;;;;;;;14.73;2.53;;;;;;;24.80;37.69;102917.41;5050477;28;20028;-67
2022/10/06 11:04:49;;;;;;;8.98;2.53;;;;;;;25.35;35.03;102915.00;5065211;28;20116;-67
2022/10/06 11:07:23;;;;;;;10.05;2.10;;;;;;;26.55;34.61;102919.03;5064348;28;20062;-67
2022/10/06 11:10:09;;;;;;;8.77;2.17;;;;;;;26.03;36.14;102918.34;5065075;28;20433;-68
2022/10/06 11:12:53;;;;;;;9.75;2.33;;;;;;;26.94;32.99;102929.53;5064495;28;20112;-67
2022/10/06 11:15:36;;;;;;;8.57;2.13;;;;;;;27.13;31.17;102924.94;5063236;28;20466;-68
2022/10/06 11:18:40;;;;;;;6.80;2.00;;;;;;;27.52;33.20;102943.81;5062689;28;20441;-67
2022/10/06 11:21:16;;;;;;;9.45;2.78;;;;;;;26.38;34.10;102930.63;5064141;28;20024;-66
2022/10/06 11:24:14;;;;;;;7.97;2.40;;;;;;;26.19;34.38;102930.41;5064849;28;20051;-66
2022/10/06 11:26:39;;;;;;;;;;;;;;;25.25;36.18;102926.25;5064938;28;20029;-67
2022/10/06 11:29:19;;;;;;;9.38;1.75;;;;;;;23.38;38.38;102922.16;5063620;28;19954;-66
2022/10/06 11:31:53;;;;;;;11.27;2.22;;;;;;;22.55;39.43;102922.31;5064824;28;20112;-66
2022/10/06 11:34:19;;;;;;;9.52;2.17;;;;;;;23.37;38.33;102918.50;5063067;28;20373;-67
2022/10/06 11:37:21;;;;;;;8.95;1.88;;;;;;;24.69;38.56;102918.50;5064863;28;20115;-66
2022/10/06 11:40:02;;;;;;;11.70;2.20;;;;;;;26.35;33.53;102920.75;5070540;28;20067;-66
2022/10/06 11:42:39;;;;;;;7.38;1.70;;;;;;;27.44;34.14;102922.72;5069901;28;20036;-66